createdAt,value
2023-05-21T00:00:17.956Z,100587.06
2023-05-21T00:02:45.951Z,100583.72
2023-05-21T00:05:15.580Z,100580.38
2023-05-21T00:07:43.676Z,100592.72
2023-05-21T00:10:13.217Z,100590.09
2023-05-21T00:12:41.991Z,100585.31
2023-05-21T00:15:11.095Z,100584.03
2023-05-21T00:17:40.163Z,100579.63
2023-05-21T00:20:10.174Z,100576.53
2023-05-21T00:22:38.187Z,100576.75
2023-05-21T00:25:07.073Z,100569.28
2023-05-21T00:27:36.454Z,100575.09
2023-05-21T00:30:04.828Z,100569.03
2023-05-21T00:32:32.817Z,100570.69
2023-05-21T00:35:00.810Z,100565.56
2023-05-21T00:37:29.922Z,100561.78
2023-05-21T00:39:58.464Z,100555.50
2023-05-21T00:42:27.413Z,100558.94
2023-05-21T00:44:57.023Z,100545.50
2023-05-21T00:47:27.017Z,100548.38
2023-05-21T00:49:55.763Z,100550.50
2023-05-21T00:52:26.854Z,100546.09
2023-05-21T00:54:55.366Z,100540.88
2023-05-21T00:57:27.130Z,100542.53
2023-05-21T00:59:56.785Z,100539.81
2023-05-21T01:02:26.163Z,100532.94
2023-05-21T01:04:56.284Z,100545.03
2023-05-21T01:07:24.344Z,100534.59
2023-05-21T01:09:52.478Z,100530.44
2023-05-21T01:12:21.851Z,100534.72
2023-05-21T01:14:50.724Z,100531.47
2023-05-21T01:17:24.376Z,100531.59
2023-05-21T01:19:54.777Z,100538.75
2023-05-21T01:22:25.161Z,100530.91
2023-05-21T01:24:55.637Z,100530.06
2023-05-21T01:27:23.633Z,100528.75
2023-05-21T01:29:51.631Z,100531.03
2023-05-21T01:32:26.933Z,100522.34
2023-05-21T01:35:01.334Z,100529.47
2023-05-21T01:37:36.240Z,100525.91
2023-05-21T01:40:11.923Z,100525.06
2023-05-21T01:42:44.378Z,100527.47
2023-05-21T01:45:13.577Z,100526.13
2023-05-21T01:47:42.370Z,100522.69
2023-05-21T01:50:11.323Z,100521.84
2023-05-21T01:52:39.293Z,100513.31
2023-05-21T01:55:09.215Z,100514.97
2023-05-21T01:57:37.160Z,100510.00
2023-05-21T02:00:06.103Z,100519.94
2023-05-21T02:02:34.094Z,100514.94
2023-05-21T02:05:02.050Z,100511.75
2023-05-21T02:07:32.648Z,100512.19
2023-05-21T02:10:00.762Z,100508.75
2023-05-21T02:12:30.116Z,100511.59
2023-05-21T02:14:58.623Z,100519.88
2023-05-21T02:17:26.838Z,100507.91
2023-05-21T02:19:54.835Z,100513.94
2023-05-21T02:22:22.818Z,100516.06
2023-05-21T02:24:50.762Z,100509.19
2023-05-21T02:27:18.798Z,100512.28
2023-05-21T02:29:48.104Z,100513.22
2023-05-21T02:32:16.985Z,100514.38
2023-05-21T02:34:47.404Z,100507.00
2023-05-21T02:37:15.433Z,100497.72
2023-05-21T02:39:43.381Z,100507.44
2023-05-21T02:42:11.316Z,100504.84
2023-05-21T02:44:39.288Z,100494.25
2023-05-21T02:47:10.398Z,100500.03
2023-05-21T02:49:38.391Z,100479.28
2023-05-21T02:52:06.790Z,100499.53
2023-05-21T02:54:34.735Z,100500.47
2023-05-21T02:57:02.694Z,100499.53
2023-05-21T02:59:30.689Z,100493.56
2023-05-21T03:01:58.622Z,100494.31
2023-05-21T03:04:28.419Z,100500.97
2023-05-21T03:06:56.601Z,100507.34
2023-05-21T03:09:25.036Z,100513.91
2023-05-21T03:11:53.006Z,100514.75
2023-05-21T03:14:20.939Z,100509.97
2023-05-21T03:16:49.262Z,100514.66
2023-05-21T03:19:17.257Z,100513.56
2023-05-21T03:21:46.869Z,100515.94
2023-05-21T03:24:15.383Z,100520.97
2023-05-21T03:26:43.359Z,100531.41
2023-05-21T03:29:11.293Z,100517.63
2023-05-21T03:31:39.221Z,100525.13
2023-05-21T03:34:08.660Z,100529.28
2023-05-21T03:36:36.667Z,100524.66
2023-05-21T03:39:07.096Z,100518.41
2023-05-21T03:41:35.022Z,100528.38
2023-05-21T03:44:03.052Z,100525.19
2023-05-21T03:46:31.034Z,100528.91
2023-05-21T03:48:59.300Z,100526.06
2023-05-21T03:51:27.529Z,100535.47
2023-05-21T03:53:55.505Z,100535.16
2023-05-21T03:56:24.870Z,100531.03
2023-05-21T03:58:52.854Z,100533.28
2023-05-21T04:01:20.830Z,100536.31
2023-05-21T04:03:49.007Z,100530.94
2023-05-21T04:06:19.109Z,100531.88
2023-05-21T04:08:47.038Z,100525.44
2023-05-21T04:11:14.980Z,100530.75
2023-05-21T04:13:44.334Z,100530.72
2023-05-21T04:16:14.753Z,100530.06
2023-05-21T04:18:44.929Z,100528.31
2023-05-21T04:21:14.199Z,100535.38
2023-05-21T04:23:42.271Z,100539.94
2023-05-21T04:26:10.230Z,100536.34
2023-05-21T04:28:38.163Z,100544.47
2023-05-21T04:31:08.763Z,100537.97
2023-05-21T04:33:36.772Z,100541.50
2023-05-21T04:36:05.057Z,100536.00
2023-05-21T04:38:33.412Z,100526.88
2023-05-21T04:41:03.884Z,100530.22
2023-05-21T04:43:32.133Z,100538.50
2023-05-21T04:46:00.099Z,100535.19
2023-05-21T04:48:29.549Z,100538.66
2023-05-21T04:50:57.623Z,100534.19
2023-05-21T04:53:26.215Z,100537.44
2023-05-21T04:55:54.301Z,100534.38
2023-05-21T04:58:22.251Z,100533.69
2023-05-21T05:00:51.789Z,100537.97
2023-05-21T05:03:19.917Z,100534.72
2023-05-21T05:05:49.314Z,100535.59
2023-05-21T05:08:17.271Z,100528.31
2023-05-21T05:10:45.259Z,100538.66
2023-05-21T05:13:13.452Z,100535.13
2023-05-21T05:15:41.450Z,100535.00
2023-05-21T05:18:09.669Z,100536.50
2023-05-21T05:20:37.695Z,100536.59
2023-05-21T05:23:07.047Z,100535.84
2023-05-21T05:25:35.064Z,100533.50
2023-05-21T05:28:03.069Z,100534.84
2023-05-21T05:30:31.080Z,100527.78
2023-05-21T05:32:59.095Z,100538.00
2023-05-21T05:35:27.092Z,100530.16
2023-05-21T05:37:55.038Z,100529.94
2023-05-21T05:40:24.365Z,100528.69
2023-05-21T05:42:52.840Z,100520.59
2023-05-21T05:45:21.201Z,100517.53
2023-05-21T05:47:49.187Z,100524.59
2023-05-21T05:50:17.194Z,100522.63
2023-05-21T05:52:45.115Z,100529.38
2023-05-21T05:55:13.159Z,100528.03
2023-05-21T05:57:44.453Z,100527.69
2023-05-21T06:00:14.760Z,100536.66
2023-05-21T06:02:42.777Z,100517.31
2023-05-21T06:05:11.656Z,100526.94
2023-05-21T06:07:39.918Z,100529.13
2023-05-21T06:10:08.520Z,100538.25
2023-05-21T06:12:36.634Z,100530.97
2023-05-21T06:15:06.908Z,100531.59
2023-05-21T06:17:34.960Z,100536.34
2023-05-21T06:20:03.074Z,100532.41
2023-05-21T06:22:31.158Z,100530.00
2023-05-21T06:24:59.107Z,100532.44
2023-05-21T06:27:27.037Z,100517.16
2023-05-21T06:29:55.002Z,100517.56
2023-05-21T06:32:24.473Z,100518.69
2023-05-21T06:34:52.482Z,100519.91
2023-05-21T06:37:22.065Z,100521.22
2023-05-21T06:39:50.104Z,100520.09
2023-05-21T06:42:18.077Z,100512.75
2023-05-21T06:44:46.120Z,100510.84
2023-05-21T06:47:14.083Z,100505.56
2023-05-21T06:49:43.442Z,100501.25
2023-05-21T06:52:11.434Z,100506.22
2023-05-21T06:54:39.446Z,100499.16
2023-05-21T06:57:07.406Z,100502.38
2023-05-21T06:59:35.473Z,100495.75
2023-05-21T07:02:04.789Z,100506.31
2023-05-21T07:04:35.251Z,100499.34
2023-05-21T07:07:04.980Z,100495.06
2023-05-21T07:09:33.064Z,100498.84
2023-05-21T07:12:01.344Z,100496.19
2023-05-21T07:14:29.298Z,100493.63
2023-05-21T07:16:57.331Z,100486.34
2023-05-21T07:19:25.468Z,100488.19
2023-05-21T07:21:53.549Z,100485.53
2023-05-21T07:24:22.888Z,100480.78
2023-05-21T07:26:51.104Z,100480.69
2023-05-21T07:29:19.078Z,100478.38
2023-05-21T07:31:47.016Z,100465.22
2023-05-21T07:34:15.009Z,100480.16
2023-05-21T07:36:42.988Z,100488.09
2023-05-21T07:39:11.086Z,100485.50
2023-05-21T07:41:40.412Z,100475.38
2023-05-21T07:44:08.375Z,100473.41
2023-05-21T07:46:36.352Z,100470.81
2023-05-21T07:49:04.318Z,100471.72
2023-05-21T07:51:32.406Z,100460.66
2023-05-21T07:54:00.341Z,100463.53
2023-05-21T07:56:28.984Z,100467.25
2023-05-21T07:58:58.330Z,100463.22
2023-05-21T08:01:26.293Z,100454.47
2023-05-21T08:03:54.342Z,100456.44
2023-05-21T08:06:24.452Z,100449.56
2023-05-21T08:08:52.392Z,100458.34
2023-05-21T08:11:20.325Z,100446.81
2023-05-21T08:13:48.260Z,100454.59
2023-05-21T08:16:17.712Z,100455.00
2023-05-21T08:18:45.780Z,100446.53
2023-05-21T08:21:13.776Z,100455.44
2023-05-21T08:23:41.702Z,100462.59
2023-05-21T08:26:09.714Z,100454.47
2023-05-21T08:28:39.646Z,100449.16
2023-05-21T08:31:07.695Z,100463.22
2023-05-21T08:33:38.531Z,100456.91
2023-05-21T08:36:07.365Z,100455.03
2023-05-21T08:38:36.469Z,100458.75
2023-05-21T08:41:09.994Z,100452.44
2023-05-21T08:43:38.387Z,100463.88
2023-05-21T08:46:07.974Z,100448.50
2023-05-21T08:48:38.261Z,100462.44
2023-05-21T08:51:07.235Z,100454.72
2023-05-21T08:53:35.501Z,100458.66
2023-05-21T08:56:03.926Z,100462.06
2023-05-21T08:58:33.909Z,100449.72
2023-05-21T09:01:01.915Z,100463.13
2023-05-21T09:03:31.879Z,100457.28
2023-05-21T09:06:01.727Z,100458.28
2023-05-21T09:08:33.014Z,100472.94
2023-05-21T09:11:03.461Z,100471.19
2023-05-21T09:13:32.842Z,100464.00
2023-05-21T09:16:00.945Z,100463.44
2023-05-21T09:18:28.892Z,100465.13
2023-05-21T09:20:57.618Z,100462.44
2023-05-21T09:23:29.958Z,100462.59
2023-05-21T09:25:58.465Z,100466.13
2023-05-21T09:28:26.546Z,100468.25
2023-05-21T09:30:54.711Z,100464.47
2023-05-21T09:33:26.226Z,100453.22
2023-05-21T09:35:54.292Z,100461.84
2023-05-21T09:38:24.038Z,100466.31
2023-05-21T09:40:56.315Z,100459.38
2023-05-21T09:43:24.325Z,100450.84
2023-05-21T09:45:53.645Z,100451.75
2023-05-21T09:48:34.749Z,100454.13
2023-05-21T09:51:13.523Z,100439.44
2023-05-21T09:53:46.248Z,100451.19
2023-05-21T09:56:15.592Z,100446.34
2023-05-21T09:58:44.298Z,100453.59
2023-05-21T10:01:12.547Z,100451.09
2023-05-21T10:03:41.131Z,100453.91
2023-05-21T10:06:10.193Z,100464.91
2023-05-21T10:08:43.652Z,100454.28
2023-05-21T10:11:13.063Z,100461.69
2023-05-21T10:13:49.548Z,100456.25
2023-05-21T10:16:18.466Z,100442.41
2023-05-21T10:18:49.281Z,100452.72
2023-05-21T10:21:18.116Z,100460.66
2023-05-21T10:23:47.427Z,100450.91
2023-05-21T10:26:15.734Z,100464.75
2023-05-21T10:28:45.755Z,100458.25
2023-05-21T10:31:14.313Z,100453.75
2023-05-21T10:33:43.768Z,100461.00
2023-05-21T10:36:11.870Z,100447.69
2023-05-21T10:38:40.355Z,100453.91
2023-05-21T10:41:09.540Z,100451.47
2023-05-21T10:43:54.107Z,100446.53
2023-05-21T10:47:09.402Z,100438.41
2023-05-21T10:49:53.325Z,100435.78
2023-05-21T10:52:35.054Z,100438.56
2023-05-21T10:55:24.587Z,100422.72
2023-05-21T10:58:30.294Z,100424.53
2023-05-21T11:01:01.635Z,100442.72
2023-05-21T11:03:32.077Z,100431.06
2023-05-21T11:06:05.383Z,100420.81
2023-05-21T11:08:36.325Z,100425.59
2023-05-21T11:11:05.191Z,100434.84
2023-05-21T11:13:48.822Z,100418.97
2023-05-21T11:16:21.779Z,100421.63
2023-05-21T11:18:59.165Z,100416.50
2023-05-21T11:21:31.264Z,100408.31
2023-05-21T11:24:08.809Z,100427.38
2023-05-21T11:27:06.860Z,100427.22
2023-05-21T11:29:42.727Z,100415.50
2023-05-21T11:32:15.207Z,100413.06
2023-05-21T11:34:46.193Z,100400.91
2023-05-21T11:37:30.178Z,100403.00
2023-05-21T11:39:59.975Z,100395.03
2023-05-21T11:42:32.971Z,100415.06
2023-05-21T11:45:02.464Z,100396.41
2023-05-21T11:47:33.304Z,100392.50
2023-05-21T11:50:02.509Z,100390.25
2023-05-21T11:52:31.789Z,100387.31
2023-05-21T11:55:00.286Z,100386.03
2023-05-21T11:57:31.276Z,100378.28
2023-05-21T12:00:01.512Z,100378.50
2023-05-21T12:02:37.309Z,100378.06
2023-05-21T12:05:06.456Z,100380.00
2023-05-21T12:07:34.735Z,100378.88
2023-05-21T12:10:02.781Z,100383.06
2023-05-21T12:12:45.679Z,100373.78
2023-05-21T12:15:18.995Z,100368.97
2023-05-21T12:17:52.937Z,100376.28
2023-05-21T12:20:21.430Z,100366.06
2023-05-21T12:22:50.326Z,100353.41
2023-05-21T12:25:20.600Z,100368.28
2023-05-21T12:27:51.012Z,100382.25
2023-05-21T12:30:19.188Z,100369.41
2023-05-21T12:32:49.925Z,100369.84
2023-05-21T12:35:25.049Z,100364.09
2023-05-21T12:37:53.401Z,100361.41
2023-05-21T12:40:22.339Z,100364.38
2023-05-21T12:42:51.779Z,100362.88
2023-05-21T12:45:22.116Z,100356.25
2023-05-21T12:47:56.316Z,100349.03
2023-05-21T12:50:24.762Z,100352.50
2023-05-21T12:52:56.121Z,100357.84
2023-05-21T12:55:25.816Z,100347.38
2023-05-21T12:58:03.676Z,100354.28
2023-05-21T13:00:32.973Z,100346.44
2023-05-21T13:03:04.588Z,100346.59
2023-05-21T13:05:32.918Z,100347.44
2023-05-21T13:08:00.884Z,100350.88
2023-05-21T13:10:28.863Z,100346.78
2023-05-21T13:12:56.823Z,100353.38
2023-05-21T13:15:24.792Z,100349.34
2023-05-21T13:17:55.152Z,100347.53
2023-05-21T13:20:27.558Z,100352.94
2023-05-21T13:22:55.869Z,100351.13
2023-05-21T13:25:27.526Z,100336.66
2023-05-21T13:27:55.819Z,100338.31
2023-05-21T13:30:23.886Z,100339.84
2023-05-21T13:32:52.328Z,100338.72
2023-05-21T13:35:20.643Z,100294.69
2023-05-21T13:37:50.132Z,100320.38
2023-05-21T13:40:18.318Z,100326.81
2023-05-21T13:42:47.806Z,100332.50
2023-05-21T13:45:19.031Z,100325.53
2023-05-21T13:47:48.161Z,100312.53
2023-05-21T13:50:17.556Z,100312.72
2023-05-21T13:52:46.103Z,100319.53
2023-05-21T13:55:16.925Z,100307.78
2023-05-21T13:57:46.049Z,100313.03
2023-05-21T14:00:16.244Z,100311.91
2023-05-21T14:02:45.225Z,100309.09
2023-05-21T14:05:13.585Z,100302.91
2023-05-21T14:07:42.031Z,100302.81
2023-05-21T14:10:11.335Z,100305.94
2023-05-21T14:12:40.970Z,100308.59
2023-05-21T14:15:09.804Z,100308.50
2023-05-21T14:17:40.335Z,100311.09
2023-05-21T14:20:09.948Z,100296.06
2023-05-21T14:22:38.823Z,100302.59
2023-05-21T14:25:07.589Z,100303.38
2023-05-21T14:27:37.915Z,100305.41
2023-05-21T14:30:08.884Z,100279.66
2023-05-21T14:32:36.897Z,100289.91
2023-05-21T14:35:06.262Z,100305.25
2023-05-21T14:37:34.255Z,100294.28
2023-05-21T14:40:02.230Z,100291.47
2023-05-21T14:42:30.703Z,100283.66
2023-05-21T14:44:59.053Z,100293.84
2023-05-21T14:47:28.474Z,100289.28
2023-05-21T14:49:56.428Z,100287.47
2023-05-21T14:52:24.382Z,100290.41
2023-05-21T14:54:52.329Z,100277.84
2023-05-21T14:57:20.878Z,100289.59
2023-05-21T14:59:48.838Z,100281.56
2023-05-21T15:02:16.880Z,100269.00
2023-05-21T15:04:46.413Z,100275.34
2023-05-21T15:07:14.451Z,100277.38
2023-05-21T15:09:42.457Z,100290.34
2023-05-21T15:12:10.431Z,100278.72
2023-05-21T15:14:38.886Z,100270.25
2023-05-21T15:17:07.216Z,100283.84
2023-05-21T15:19:35.398Z,100280.88
2023-05-21T15:22:04.934Z,100278.69
2023-05-21T15:24:34.089Z,100282.94
2023-05-21T15:27:02.041Z,100287.34
2023-05-21T15:29:29.994Z,100279.16
2023-05-21T15:31:58.434Z,100288.31
2023-05-21T15:34:26.739Z,100288.13
2023-05-21T15:36:54.778Z,100295.59
2023-05-21T15:39:24.138Z,100285.97
2023-05-21T15:41:53.796Z,100288.13
2023-05-21T15:44:21.926Z,100296.66
2023-05-21T15:46:50.420Z,100295.41
2023-05-21T15:49:18.566Z,100294.50
2023-05-21T15:51:46.953Z,100290.59
2023-05-21T15:54:14.927Z,100306.25
2023-05-21T15:56:45.359Z,100322.38
2023-05-21T15:59:13.440Z,100336.78
2023-05-21T16:01:41.534Z,100327.53
2023-05-21T16:04:09.699Z,100348.44
2023-05-21T16:06:37.761Z,100355.44
2023-05-21T16:09:05.861Z,100359.75
2023-05-21T16:11:33.881Z,100362.84
2023-05-21T16:14:03.204Z,100361.28
2023-05-21T16:16:31.248Z,100365.25
2023-05-21T16:18:59.309Z,100356.03
2023-05-21T16:21:27.250Z,100346.09
2023-05-21T16:23:55.245Z,100363.94
2023-05-21T16:26:23.201Z,100363.94
2023-05-21T16:28:51.206Z,100365.59
2023-05-21T16:31:20.565Z,100361.59
2023-05-21T16:33:48.519Z,100373.81
2023-05-21T16:36:17.986Z,100375.31
2023-05-21T16:38:46.056Z,100374.81
2023-05-21T16:41:14.058Z,100377.44
2023-05-21T16:43:42.070Z,100375.94
2023-05-21T16:46:10.253Z,100381.72
2023-05-21T16:48:40.873Z,100384.03
2023-05-21T16:51:08.858Z,100390.97
2023-05-21T16:53:36.812Z,100398.06
2023-05-21T16:56:04.807Z,100404.81
2023-05-21T16:58:33.736Z,100401.81
2023-05-21T17:01:01.703Z,100417.34
2023-05-21T17:03:32.058Z,100411.50
2023-05-21T17:06:01.540Z,100403.78
2023-05-21T17:08:29.510Z,100410.25
2023-05-21T17:10:57.462Z,100414.69
2023-05-21T17:13:25.523Z,100407.97
2023-05-21T17:15:53.569Z,100417.72
2023-05-21T17:18:21.491Z,100422.38
2023-05-21T17:20:49.434Z,100426.72
2023-05-21T17:23:18.823Z,100418.16
2023-05-21T17:25:46.814Z,100418.00
2023-05-21T17:28:14.797Z,100409.66
2023-05-21T17:30:43.061Z,100425.84
2023-05-21T17:33:12.278Z,100417.69
2023-05-21T17:35:40.438Z,100418.56
2023-05-21T17:38:08.482Z,100422.00
2023-05-21T17:40:37.895Z,100428.09
2023-05-21T17:43:07.465Z,100430.88
2023-05-21T17:45:35.827Z,100431.03
2023-05-21T17:48:04.120Z,100433.22
2023-05-21T17:50:32.170Z,100434.13
2023-05-21T17:53:00.453Z,100441.50
2023-05-21T17:55:28.450Z,100433.69
2023-05-21T17:57:57.789Z,100441.50
2023-05-21T18:00:25.870Z,100442.72
2023-05-21T18:02:53.831Z,100441.44
2023-05-21T18:05:22.912Z,100439.09
2023-05-21T18:07:50.917Z,100440.63
2023-05-21T18:10:18.860Z,100436.72
2023-05-21T18:12:47.271Z,100433.72
2023-05-21T18:15:17.150Z,100432.59
2023-05-21T18:17:45.522Z,100440.03
2023-05-21T18:20:14.832Z,100452.06
2023-05-21T18:22:42.807Z,100447.94
2023-05-21T18:25:11.159Z,100452.22
2023-05-21T18:27:39.154Z,100458.53
2023-05-21T18:30:08.633Z,100450.41
2023-05-21T18:32:39.523Z,100464.09
2023-05-21T18:35:08.330Z,100469.34
2023-05-21T18:37:37.380Z,100465.56
2023-05-21T18:40:07.433Z,100462.38
2023-05-21T18:42:35.900Z,100477.47
2023-05-21T18:45:07.647Z,100484.50
2023-05-21T18:47:39.081Z,100488.88
2023-05-21T18:50:09.055Z,100487.28
2023-05-21T18:52:37.053Z,100485.19
2023-05-21T18:55:05.618Z,100489.72
2023-05-21T18:57:34.817Z,100489.56
2023-05-21T19:00:03.207Z,100492.66
2023-05-21T19:02:31.458Z,100489.50
2023-05-21T19:05:01.960Z,100499.47
2023-05-21T19:07:30.160Z,100498.22
2023-05-21T19:10:00.077Z,100502.13
2023-05-21T19:12:29.457Z,100497.81
2023-05-21T19:14:57.462Z,100499.47
2023-05-21T19:17:25.474Z,100502.50
2023-05-21T19:19:56.008Z,100505.00
2023-05-21T19:22:26.053Z,100509.72
2023-05-21T19:24:54.167Z,100523.34
2023-05-21T19:27:22.507Z,100523.00
2023-05-21T19:29:50.498Z,100521.91
2023-05-21T19:32:18.825Z,100521.09
2023-05-21T19:34:46.853Z,100522.75
2023-05-21T19:37:14.783Z,100524.16
2023-05-21T19:39:44.944Z,100519.41
2023-05-21T19:42:12.926Z,100523.84
2023-05-21T19:44:41.484Z,100524.53
2023-05-21T19:47:09.838Z,100530.63
2023-05-21T19:49:37.892Z,100535.75
2023-05-21T19:52:06.662Z,100541.16
2023-05-21T19:54:34.620Z,100545.84
2023-05-21T19:57:03.981Z,100539.09
2023-05-21T19:59:31.937Z,100548.31
2023-05-21T20:01:59.964Z,100549.41
2023-05-21T20:04:28.211Z,100545.88
2023-05-21T20:06:56.158Z,100555.38
2023-05-21T20:09:24.247Z,100556.66
2023-05-21T20:11:52.754Z,100555.97
2023-05-21T20:14:22.123Z,100558.59
2023-05-21T20:16:50.099Z,100556.94
2023-05-21T20:19:18.733Z,100555.38
2023-05-21T20:21:46.858Z,100560.63
2023-05-21T20:24:14.825Z,100566.75
2023-05-21T20:26:45.025Z,100561.72
2023-05-21T20:29:12.997Z,100563.97
2023-05-21T20:31:42.372Z,100569.25
2023-05-21T20:34:12.407Z,100565.38
2023-05-21T20:36:41.445Z,100565.78
2023-05-21T20:39:09.415Z,100564.81
2023-05-21T20:41:38.836Z,100566.59
2023-05-21T20:44:07.334Z,100568.66
2023-05-21T20:46:38.396Z,100562.56
2023-05-21T20:49:09.869Z,100563.81
2023-05-21T20:51:37.968Z,100566.31
2023-05-21T20:54:06.264Z,100564.09
2023-05-21T20:56:41.975Z,100569.91
2023-05-21T20:59:12.085Z,100571.88
2023-05-21T21:01:41.295Z,100553.97
2023-05-21T21:04:11.459Z,100576.13
2023-05-21T21:06:40.552Z,100571.97
2023-05-21T21:09:08.846Z,100573.78
2023-05-21T21:11:37.061Z,100571.56
2023-05-21T21:14:05.013Z,100577.78
2023-05-21T21:16:33.240Z,100577.50
2023-05-21T21:19:01.965Z,100574.97
2023-05-21T21:21:31.863Z,100581.75
2023-05-21T21:23:59.852Z,100581.88
2023-05-21T21:26:27.814Z,100584.22
2023-05-21T21:28:56.479Z,100596.56
2023-05-21T21:31:25.107Z,100593.53
2023-05-21T21:33:53.315Z,100596.00
2023-05-21T21:36:21.436Z,100595.72
2023-05-21T21:38:50.779Z,100592.66
2023-05-21T21:41:20.390Z,100574.44
2023-05-21T21:43:48.382Z,100592.53
2023-05-21T21:46:16.791Z,100592.41
2023-05-21T21:48:44.898Z,100587.25
2023-05-21T21:51:14.091Z,100577.47
2023-05-21T21:53:42.247Z,100577.69
2023-05-21T21:56:11.975Z,100584.09
2023-05-21T21:58:39.938Z,100527.66
2023-05-21T22:01:07.998Z,100576.09
2023-05-21T22:03:36.145Z,100581.63
2023-05-21T22:06:04.110Z,100571.09
2023-05-21T22:08:32.091Z,100566.41
2023-05-21T22:11:01.347Z,100564.59
2023-05-21T22:13:30.697Z,100559.66
2023-05-21T22:15:58.650Z,100557.16
2023-05-21T22:18:39.590Z,100557.28
2023-05-21T22:21:09.754Z,100558.50
2023-05-21T22:23:38.443Z,100549.50
2023-05-21T22:26:06.825Z,100550.09
2023-05-21T22:28:36.276Z,100499.47
2023-05-21T22:31:04.364Z,100551.97
2023-05-21T22:33:32.586Z,100541.78
2023-05-21T22:36:00.550Z,100535.38
2023-05-21T22:38:28.580Z,100538.09
2023-05-21T22:40:56.709Z,100538.56
2023-05-21T22:43:24.743Z,100531.69
2023-05-21T22:45:54.091Z,100535.16
2023-05-21T22:48:22.664Z,100521.59
2023-05-21T22:50:53.508Z,100535.81
2023-05-21T22:53:21.848Z,100521.31
2023-05-21T22:55:50.077Z,100522.16
2023-05-21T22:58:18.411Z,100516.22
2023-05-21T23:00:46.903Z,100522.81
2023-05-21T23:03:16.464Z,100529.88
2023-05-21T23:05:45.293Z,100525.88
2023-05-21T23:08:13.776Z,100525.91
2023-05-21T23:10:41.931Z,100522.53
2023-05-21T23:13:09.980Z,100521.00
2023-05-21T23:15:39.067Z,100525.03
2023-05-21T23:18:08.732Z,100524.75
2023-05-21T23:20:40.907Z,100517.28
2023-05-21T23:23:10.180Z,100521.53
2023-05-21T23:25:38.316Z,100514.22
2023-05-21T23:28:06.574Z,100519.47
2023-05-21T23:30:34.642Z,100522.75
2023-05-21T23:33:02.799Z,100520.50
2023-05-21T23:35:30.804Z,100516.81
2023-05-21T23:38:00.129Z,100520.50
2023-05-21T23:40:28.105Z,100521.16
2023-05-21T23:42:56.146Z,100524.19
2023-05-21T23:45:24.140Z,100516.00
2023-05-21T23:47:52.179Z,100518.72
2023-05-21T23:50:20.163Z,100507.28
2023-05-21T23:52:48.318Z,100520.06
2023-05-21T23:55:17.948Z,100514.81
2023-05-21T23:57:45.924Z,100520.06
